Landis, Canada
Current Conditions -  °F | °C
As of 12:47 PM on Thursday 27 Nov 2014 (Local Time) from CYQW Reporting Station
Light Snow Light Snow  
Wind Chill:   Ceiling: 2800
Heat Index: 12°   Visibility: 2.2mi
Dew Point: 10°   Wind: 5mph
Humidity: 92%   Direction: 100°E
Pressure: 30.05"   Gusts: NA
Location:  52.2°N, 108.45°W
Report Text: CYQW 271847Z AUTO 10004KT 2 1/4SM -SN FEW013 BKN028 OVC039 M11/M12 A3005 RMK SLP223
Loading
Personal Weather Stations






























Interactive Weather Map New forecast layout! Learn more

10-Day Weather Forecast

Advertisements
Track Severe Weather on mobile